createdAt,value
2023-04-04T00:00:45.101Z,1.50
2023-04-04T00:03:13.076Z,1.50
2023-04-04T00:05:41.624Z,1.70
2023-04-04T00:08:09.488Z,1.70
2023-04-04T00:10:37.524Z,1.30
2023-04-04T00:13:07.670Z,1.50
2023-04-04T00:15:36.457Z,1.23
2023-04-04T00:18:04.886Z,1.27
2023-04-04T00:20:33.934Z,1.23
2023-04-04T00:23:01.811Z,1.43
2023-04-04T00:25:29.760Z,1.60
2023-04-04T00:28:00.765Z,1.23
2023-04-04T00:30:31.343Z,1.17
2023-04-04T00:32:59.307Z,1.20
2023-04-04T00:35:27.359Z,1.20
2023-04-04T00:37:55.227Z,1.60
2023-04-04T00:40:23.727Z,1.70
2023-04-04T00:42:51.830Z,1.53
2023-04-04T00:45:19.956Z,1.73
2023-04-04T00:47:51.093Z,1.40
2023-04-04T00:50:19.117Z,1.40
2023-04-04T00:52:47.174Z,1.40
2023-04-04T00:55:15.328Z,1.30
2023-04-04T00:57:43.375Z,1.47
2023-04-04T01:00:13.231Z,1.57
2023-04-04T01:02:41.301Z,1.67
2023-04-04T01:05:11.126Z,1.30
2023-04-04T01:07:39.503Z,1.20
2023-04-04T01:10:08.349Z,1.47
2023-04-04T01:12:38.126Z,1.20
2023-04-04T01:15:06.511Z,1.10
2023-04-04T01:17:34.943Z,1.50
2023-04-04T01:20:08.747Z,1.60
2023-04-04T01:22:39.762Z,1.47
2023-04-04T01:25:08.997Z,1.30
2023-04-04T01:27:38.976Z,1.20
2023-04-04T01:30:08.861Z,1.07
2023-04-04T01:32:44.073Z,1.47
2023-04-04T01:35:23.245Z,1.27
2023-04-04T01:37:59.279Z,1.00
2023-04-04T01:40:35.018Z,1.43
2023-04-04T01:43:04.972Z,1.17
2023-04-04T01:45:33.215Z,1.30
2023-04-04T01:48:01.405Z,1.37
2023-04-04T01:50:29.538Z,0.80
2023-04-04T01:52:57.439Z,1.40
2023-04-04T01:55:26.083Z,1.27
2023-04-04T01:57:53.942Z,1.37
2023-04-04T02:00:23.185Z,1.00
2023-04-04T02:02:51.605Z,1.27
2023-04-04T02:05:19.668Z,1.50
2023-04-04T02:07:50.551Z,1.40
2023-04-04T02:10:18.508Z,1.57
2023-04-04T02:12:46.737Z,1.43
2023-04-04T02:15:15.059Z,1.60
2023-04-04T02:17:48.621Z,1.50
2023-04-04T02:20:19.293Z,1.30
2023-04-04T02:22:52.952Z,1.47
2023-04-04T02:25:21.193Z,1.60
2023-04-04T02:27:54.101Z,1.43
2023-04-04T02:30:22.000Z,1.50
2023-04-04T02:32:51.213Z,1.30
2023-04-04T02:35:19.297Z,1.30
2023-04-04T02:37:48.143Z,1.47
2023-04-04T02:40:16.375Z,1.33
2023-04-04T02:42:45.010Z,1.20
2023-04-04T02:45:14.487Z,1.70
2023-04-04T02:47:43.361Z,1.57
2023-04-04T02:50:13.043Z,1.50
2023-04-04T02:52:40.890Z,1.50
2023-04-04T02:55:09.880Z,1.40
2023-04-04T02:57:37.761Z,1.53
2023-04-04T03:00:07.011Z,1.43
2023-04-04T03:02:35.325Z,1.30
2023-04-04T03:05:03.426Z,1.30
2023-04-04T03:07:32.779Z,1.17
2023-04-04T03:10:00.815Z,1.47
2023-04-04T03:12:28.706Z,1.70
2023-04-04T03:14:57.720Z,1.33
2023-04-04T03:17:26.757Z,1.20
2023-04-04T03:19:54.705Z,1.40
2023-04-04T03:22:22.776Z,1.57
2023-04-04T03:24:52.446Z,1.67
2023-04-04T03:27:20.372Z,1.40
2023-04-04T03:29:48.225Z,1.30
2023-04-04T03:32:16.228Z,1.20
2023-04-04T03:34:44.682Z,1.50
2023-04-04T03:37:12.577Z,1.23
2023-04-04T03:39:40.808Z,1.50
2023-04-04T03:42:10.074Z,1.27
2023-04-04T03:44:41.051Z,1.17
2023-04-04T03:47:09.064Z,1.30
2023-04-04T03:49:37.046Z,1.43
2023-04-04T03:52:05.280Z,1.33
2023-04-04T03:54:33.126Z,1.37
2023-04-04T03:57:01.255Z,1.20
2023-04-04T03:59:30.802Z,1.40
2023-04-04T04:01:58.894Z,1.53
2023-04-04T04:04:26.884Z,1.40
2023-04-04T04:06:54.827Z,1.50
2023-04-04T04:09:22.785Z,1.27
2023-04-04T04:11:50.659Z,1.10
2023-04-04T04:14:18.986Z,1.37
2023-04-04T04:16:48.366Z,1.17
2023-04-04T04:19:16.559Z,0.80
2023-04-04T04:21:44.822Z,1.20
2023-04-04T04:24:12.817Z,1.20
2023-04-04T04:26:40.800Z,1.83
2023-04-04T04:29:08.870Z,1.47
2023-04-04T04:31:36.843Z,1.10
2023-04-04T04:34:08.609Z,1.30
2023-04-04T04:36:36.901Z,1.20
2023-04-04T04:39:05.019Z,1.10
2023-04-04T04:41:33.127Z,1.30
2023-04-04T04:44:00.975Z,1.20
2023-04-04T04:46:28.975Z,0.93
2023-04-04T04:48:56.992Z,1.47
2023-04-04T04:51:27.447Z,1.33
2023-04-04T04:53:55.428Z,1.10
2023-04-04T04:56:23.403Z,1.10
2023-04-04T04:58:52.492Z,1.57
2023-04-04T05:01:20.787Z,1.17
2023-04-04T05:03:49.470Z,1.50
2023-04-04T05:06:18.654Z,1.27
2023-04-04T05:08:48.016Z,1.50
2023-04-04T05:11:15.941Z,1.40
2023-04-04T05:13:44.905Z,1.33
2023-04-04T05:16:13.100Z,1.55
2023-04-04T05:18:41.129Z,1.33
2023-04-04T05:21:09.269Z,1.20
2023-04-04T05:23:37.381Z,1.47
2023-04-04T05:26:07.493Z,1.50
2023-04-04T05:28:35.943Z,1.30
2023-04-04T05:31:03.869Z,1.10
2023-04-04T05:33:31.763Z,1.43
2023-04-04T05:36:01.120Z,1.67
2023-04-04T05:38:29.513Z,1.40
2023-04-04T05:40:57.482Z,1.20
2023-04-04T05:43:27.225Z,1.67
2023-04-04T05:45:55.135Z,1.40
2023-04-04T05:48:23.056Z,1.33
2023-04-04T05:50:51.089Z,1.43
2023-04-04T05:53:19.028Z,1.60
2023-04-04T05:55:46.931Z,1.30
2023-04-04T05:58:14.832Z,1.70
2023-04-04T06:00:44.198Z,1.80
2023-04-04T06:03:12.721Z,1.77
2023-04-04T06:05:40.987Z,2.00
2023-04-04T06:08:09.439Z,1.57
2023-04-04T06:10:37.608Z,1.83
2023-04-04T06:13:06.035Z,1.70
2023-04-04T06:15:33.959Z,1.63
2023-04-04T06:18:04.718Z,1.63
2023-04-04T06:20:32.653Z,1.70
2023-04-04T06:23:03.952Z,2.13
2023-04-04T06:25:32.232Z,1.80
2023-04-04T06:28:00.726Z,1.73
2023-04-04T06:30:28.684Z,1.77
2023-04-04T06:32:56.653Z,1.40
2023-04-04T06:35:25.994Z,1.67
2023-04-04T06:37:56.245Z,1.90
2023-04-04T06:40:24.322Z,1.43
2023-04-04T06:42:55.092Z,1.40
2023-04-04T06:45:23.562Z,1.33
2023-04-04T06:47:53.558Z,1.60
2023-04-04T06:52:52.692Z,1.60
2023-04-04T06:55:20.677Z,1.47
2023-04-04T06:57:48.594Z,1.63
2023-04-04T07:00:17.161Z,1.53
2023-04-04T07:02:45.343Z,1.70
2023-04-04T07:05:14.379Z,1.47
2023-04-04T07:07:42.317Z,1.67
2023-04-04T07:10:12.143Z,1.53
2023-04-04T07:12:40.029Z,1.60
2023-04-04T07:15:09.213Z,1.67
2023-04-04T07:17:38.997Z,1.47
2023-04-04T07:20:08.418Z,1.83
2023-04-04T07:22:38.480Z,1.77
2023-04-04T07:25:07.566Z,1.50
2023-04-04T07:27:37.050Z,1.80
2023-04-04T07:30:05.367Z,1.80
2023-04-04T07:32:33.237Z,1.60
2023-04-04T07:35:01.366Z,1.23
2023-04-04T07:37:29.314Z,1.73
2023-04-04T07:39:57.245Z,1.60
2023-04-04T07:42:27.833Z,1.67
2023-04-04T07:44:57.113Z,1.60
2023-04-04T07:47:25.310Z,1.33
2023-04-04T07:49:53.218Z,1.30
2023-04-04T07:52:21.476Z,1.70
2023-04-04T07:54:49.773Z,1.37
2023-04-04T07:57:17.667Z,1.37
2023-04-04T07:59:46.001Z,1.47
2023-04-04T08:02:15.289Z,1.40
2023-04-04T08:04:43.237Z,1.73
2023-04-04T08:07:11.283Z,1.40
2023-04-04T08:09:39.182Z,1.60
2023-04-04T08:12:07.844Z,1.50
2023-04-04T08:14:35.819Z,1.90
2023-04-04T08:17:03.694Z,1.73
2023-04-04T08:19:32.973Z,2.00
2023-04-04T08:22:01.541Z,1.70
2023-04-04T08:24:30.723Z,1.63
2023-04-04T08:27:05.226Z,1.60
2023-04-04T08:29:34.503Z,2.17
2023-04-04T08:32:02.497Z,1.83
2023-04-04T08:34:32.051Z,1.83
2023-04-04T08:37:00.588Z,2.07
2023-04-04T08:39:28.489Z,1.70
2023-04-04T08:42:03.475Z,1.70
2023-04-04T08:44:32.589Z,1.80
2023-04-04T08:47:01.625Z,1.77
2023-04-04T08:49:35.005Z,1.70
2023-04-04T08:52:04.737Z,2.00
2023-04-04T08:54:36.198Z,1.57
2023-04-04T08:57:04.342Z,2.17
2023-04-04T08:59:32.798Z,1.90
2023-04-04T09:02:06.241Z,1.53
2023-04-04T09:04:36.443Z,1.87
2023-04-04T09:07:05.736Z,1.80
2023-04-04T09:09:34.398Z,1.93
2023-04-04T09:12:03.426Z,1.60
2023-04-04T09:14:32.374Z,1.50
2023-04-04T09:17:00.393Z,1.90
2023-04-04T09:19:28.494Z,2.03
2023-04-04T09:21:57.896Z,1.90
2023-04-04T09:24:26.467Z,1.90
2023-04-04T09:26:55.273Z,2.00
2023-04-04T09:29:23.310Z,2.00
2023-04-04T09:31:51.731Z,1.50
2023-04-04T09:34:21.744Z,1.70
2023-04-04T09:36:49.913Z,2.00
2023-04-04T09:39:23.182Z,2.00
2023-04-04T09:41:51.259Z,1.87
2023-04-04T09:44:19.352Z,2.00
2023-04-04T09:46:51.961Z,1.67
2023-04-04T09:49:22.759Z,2.03
2023-04-04T09:51:53.898Z,1.67
2023-04-04T09:54:29.722Z,1.90
2023-04-04T09:56:58.341Z,1.60
2023-04-04T09:59:26.478Z,1.70
2023-04-04T10:01:56.417Z,1.67
2023-04-04T10:04:27.256Z,1.73
2023-04-04T10:06:55.764Z,1.70
2023-04-04T10:09:24.234Z,1.50
2023-04-04T10:12:09.738Z,1.90
2023-04-04T10:14:37.882Z,1.80
2023-04-04T10:17:10.434Z,1.80
2023-04-04T10:19:39.338Z,2.03
2023-04-04T10:22:07.388Z,1.60
2023-04-04T10:24:35.631Z,1.70
2023-04-04T10:27:05.043Z,1.83
2023-04-04T10:29:33.887Z,2.10
2023-04-04T10:32:06.432Z,1.70
2023-04-04T10:34:42.181Z,1.83
2023-04-04T10:37:14.320Z,2.10
2023-04-04T10:39:47.597Z,1.97
2023-04-04T10:42:17.464Z,1.70
2023-04-04T10:44:46.974Z,2.17
2023-04-04T10:47:16.559Z,1.67
2023-04-04T10:49:46.247Z,1.90
2023-04-04T10:52:17.596Z,2.20
2023-04-04T10:54:47.840Z,2.00
2023-04-04T10:57:18.285Z,2.00
2023-04-04T10:59:59.695Z,1.83
2023-04-04T11:02:45.554Z,1.80
2023-04-04T11:05:16.031Z,1.87
2023-04-04T11:07:57.227Z,1.90
2023-04-04T11:10:37.177Z,1.60
2023-04-04T11:13:14.352Z,1.60
2023-04-04T11:15:55.802Z,1.70
2023-04-04T11:18:45.509Z,1.47
2023-04-04T11:21:18.360Z,1.47
2023-04-04T11:24:19.433Z,1.70
2023-04-04T11:26:48.640Z,1.63
2023-04-04T11:29:51.443Z,1.80
2023-04-04T11:32:34.628Z,1.87
2023-04-04T11:35:06.352Z,1.80
2023-04-04T11:37:44.596Z,1.87
2023-04-04T11:40:13.949Z,1.90
2023-04-04T11:42:43.311Z,1.83
2023-04-04T11:45:19.142Z,1.50
2023-04-04T11:47:50.504Z,1.73
2023-04-04T11:50:20.798Z,1.60
2023-04-04T11:52:48.623Z,1.60
2023-04-04T11:55:17.653Z,1.77
2023-04-04T11:57:47.494Z,1.57
2023-04-04T12:00:29.993Z,1.63
2023-04-04T12:02:59.710Z,1.47
2023-04-04T12:05:29.078Z,1.80
2023-04-04T12:07:57.348Z,1.80
2023-04-04T12:10:25.620Z,1.73
2023-04-04T12:12:56.977Z,1.80
2023-04-04T12:15:24.880Z,1.97
2023-04-04T12:17:52.766Z,1.50
2023-04-04T12:20:25.034Z,1.70
2023-04-04T12:22:53.324Z,1.60
2023-04-04T12:25:23.907Z,1.80
2023-04-04T12:27:53.491Z,1.60
2023-04-04T12:30:22.542Z,1.93
2023-04-04T12:32:51.737Z,1.70
2023-04-04T12:35:19.807Z,2.23
2023-04-04T12:38:02.749Z,1.80
2023-04-04T12:40:33.203Z,1.70
2023-04-04T12:43:02.054Z,1.73
2023-04-04T12:45:30.716Z,1.80
2023-04-04T12:47:58.974Z,1.80
2023-04-04T12:50:29.393Z,2.10
2023-04-04T12:53:18.458Z,1.33
2023-04-04T12:55:52.040Z,2.10
2023-04-04T12:58:22.842Z,2.00
2023-04-04T13:00:53.509Z,1.73
2023-04-04T13:03:23.060Z,1.80
2023-04-04T13:05:52.438Z,1.60
2023-04-04T13:08:20.754Z,1.70
2023-04-04T13:11:04.833Z,1.50
2023-04-04T13:13:35.321Z,1.80
2023-04-04T13:16:04.398Z,1.50
2023-04-04T13:18:38.605Z,1.63
2023-04-04T13:21:08.589Z,1.93
2023-04-04T13:23:39.401Z,1.67
2023-04-04T13:26:10.120Z,1.63
2023-04-04T13:28:38.065Z,1.47
2023-04-04T13:31:06.982Z,1.80
2023-04-04T13:33:35.620Z,1.83
2023-04-04T13:36:03.694Z,1.50
2023-04-04T13:38:32.156Z,1.83
2023-04-04T13:41:00.570Z,1.67
2023-04-04T13:43:29.964Z,1.73
2023-04-04T13:45:58.004Z,1.53
2023-04-04T13:48:26.403Z,1.90
2023-04-04T13:50:55.408Z,1.80
2023-04-04T13:53:23.536Z,1.50
2023-04-04T13:58:22.760Z,1.40
2023-04-04T14:00:52.572Z,1.57
2023-04-04T14:03:20.752Z,1.90
2023-04-04T14:05:48.759Z,2.10
2023-04-04T14:08:16.914Z,1.60
2023-04-04T14:10:44.765Z,1.40
2023-04-04T14:13:12.744Z,1.80
2023-04-04T14:15:41.603Z,1.50
2023-04-04T14:18:12.182Z,1.60
2023-04-04T14:20:40.217Z,1.67
2023-04-04T14:23:08.621Z,1.53
2023-04-04T14:25:36.959Z,1.50
2023-04-04T14:28:04.857Z,1.60
2023-04-04T14:30:32.837Z,1.50
2023-04-04T14:33:00.854Z,1.90
2023-04-04T14:35:30.276Z,1.43
2023-04-04T14:37:58.100Z,1.80
2023-04-04T14:40:26.029Z,1.30
2023-04-04T14:42:53.924Z,1.70
2023-04-04T14:45:22.454Z,1.50
2023-04-04T14:47:55.310Z,1.63
2023-04-04T14:50:23.186Z,1.73
2023-04-04T14:52:52.967Z,1.20
2023-04-04T14:55:21.990Z,1.50
2023-04-04T14:58:02.097Z,1.23
2023-04-04T15:00:30.813Z,1.47
2023-04-04T15:02:59.364Z,1.70
2023-04-04T15:05:27.378Z,1.50
2023-04-04T15:07:56.699Z,1.50
2023-04-04T15:10:24.732Z,1.50
2023-04-04T15:12:52.614Z,1.37
2023-04-04T15:15:22.243Z,1.50
2023-04-04T15:17:51.978Z,1.60
2023-04-04T15:20:19.982Z,1.53
2023-04-04T15:22:47.880Z,1.60
2023-04-04T15:25:17.236Z,1.40
2023-04-04T15:27:45.249Z,1.60
2023-04-04T15:30:14.798Z,1.50
2023-04-04T15:32:42.772Z,1.47
2023-04-04T15:35:18.136Z,1.67
2023-04-04T15:37:46.053Z,1.67
2023-04-04T15:40:14.098Z,1.50
2023-04-04T15:42:43.649Z,1.60
2023-04-04T15:45:13.195Z,2.00
2023-04-04T15:47:41.462Z,1.57
2023-04-04T15:50:11.069Z,1.80
2023-04-04T15:52:39.052Z,1.47
2023-04-04T15:55:12.532Z,1.70
2023-04-04T15:57:42.676Z,1.80
2023-04-04T16:00:14.069Z,1.60
2023-04-04T16:02:44.285Z,1.83
2023-04-04T16:05:12.419Z,1.90
2023-04-04T16:07:40.379Z,1.90
2023-04-04T16:10:09.438Z,2.17
2023-04-04T16:12:37.293Z,2.30
2023-04-04T16:15:06.989Z,2.10
2023-04-04T16:17:36.324Z,2.00
2023-04-04T16:20:04.487Z,2.10
2023-04-04T16:22:33.198Z,2.00
2023-04-04T16:25:01.167Z,2.10
2023-04-04T16:27:29.044Z,1.97
2023-04-04T16:29:56.932Z,2.10
2023-04-04T16:32:25.017Z,2.10
2023-04-04T16:34:54.366Z,1.70
2023-04-04T16:37:23.293Z,2.20
2023-04-04T16:39:52.038Z,1.90
2023-04-04T16:42:20.263Z,2.27
2023-04-04T16:44:48.191Z,1.90
2023-04-04T16:47:16.361Z,1.80
2023-04-04T16:49:44.763Z,2.17
2023-04-04T16:52:14.878Z,1.97
2023-04-04T16:54:43.218Z,1.90
2023-04-04T16:57:11.616Z,1.97
2023-04-04T16:59:39.592Z,1.80
2023-04-04T17:02:08.908Z,1.93
2023-04-04T17:04:39.652Z,1.57
2023-04-04T17:07:09.775Z,2.00
2023-04-04T17:09:39.160Z,1.63
2023-04-04T17:12:07.469Z,1.70
2023-04-04T17:14:35.755Z,1.83
2023-04-04T17:17:05.298Z,2.20
2023-04-04T17:19:35.212Z,2.10
2023-04-04T17:22:03.913Z,1.97
2023-04-04T17:24:31.889Z,1.70
2023-04-04T17:27:03.473Z,1.43
2023-04-04T17:29:31.331Z,2.03
2023-04-04T17:31:59.783Z,1.90
2023-04-04T17:34:28.142Z,1.80
2023-04-04T17:36:56.735Z,2.10
2023-04-04T17:39:24.852Z,1.87
2023-04-04T17:41:53.016Z,2.00
2023-04-04T17:44:22.943Z,2.23
2023-04-04T17:46:50.956Z,2.33
2023-04-04T17:49:19.996Z,2.10
2023-04-04T17:51:49.076Z,1.87
2023-04-04T17:54:17.548Z,2.70
2023-04-04T17:56:46.894Z,2.23
2023-04-04T17:59:16.435Z,2.13
2023-04-04T18:01:46.742Z,1.90
2023-04-04T18:04:14.722Z,2.23
2023-04-04T18:06:42.817Z,2.23
2023-04-04T18:09:11.108Z,2.30
2023-04-04T18:11:39.977Z,2.20
2023-04-04T18:14:08.526Z,2.00
2023-04-04T18:16:40.283Z,2.03
2023-04-04T18:19:11.238Z,2.57
2023-04-04T18:21:39.308Z,2.10
2023-04-04T18:24:10.976Z,1.90
2023-04-04T18:26:38.927Z,2.00
2023-04-04T18:29:07.181Z,2.13
2023-04-04T18:31:35.226Z,2.57
2023-04-04T18:34:03.322Z,2.60
2023-04-04T18:36:32.637Z,2.67
2023-04-04T18:39:01.120Z,2.10
2023-04-04T18:41:29.149Z,2.40
2023-04-04T18:43:57.195Z,2.50
2023-04-04T18:46:25.167Z,2.53
2023-04-04T18:48:53.137Z,2.17
2023-04-04T18:51:22.342Z,2.70
2023-04-04T18:53:53.002Z,2.80
2023-04-04T18:56:21.576Z,2.40
2023-04-04T18:58:49.748Z,2.87
2023-04-04T19:01:17.708Z,2.50
2023-04-04T19:03:47.480Z,2.30
2023-04-04T19:06:16.230Z,2.63
2023-04-04T19:08:44.917Z,2.40
2023-04-04T19:11:15.628Z,2.07
2023-04-04T19:13:43.640Z,2.40
2023-04-04T19:16:11.605Z,2.60
2023-04-04T19:18:39.531Z,2.90
2023-04-04T19:21:08.843Z,2.60
2023-04-04T19:23:38.094Z,2.97
2023-04-04T19:26:06.611Z,2.73
2023-04-04T19:28:36.489Z,2.70
2023-04-04T19:31:10.581Z,3.00
2023-04-04T19:33:39.144Z,2.60
2023-04-04T19:36:10.826Z,2.80
2023-04-04T19:38:40.783Z,2.47
2023-04-04T19:41:12.749Z,2.87
2023-04-04T19:43:44.996Z,3.00
2023-04-04T19:46:14.850Z,2.77
2023-04-04T19:48:45.835Z,2.80
2023-04-04T19:51:43.096Z,3.00
2023-04-04T19:54:15.875Z,2.90
2023-04-04T19:56:47.091Z,2.60
2023-04-04T19:59:53.631Z,3.03
2023-04-04T20:02:50.844Z,2.73
2023-04-04T20:05:48.648Z,2.57
2023-04-04T20:08:17.264Z,2.93
2023-04-04T20:10:45.521Z,2.53
2023-04-04T20:13:14.281Z,2.57
2023-04-04T20:16:01.869Z,2.90
2023-04-04T20:18:32.825Z,2.83
2023-04-04T20:21:03.762Z,2.27
2023-04-04T20:23:32.749Z,2.87
2023-04-04T20:26:08.237Z,2.60
2023-04-04T20:28:36.940Z,3.00
2023-04-04T20:31:12.039Z,2.30
2023-04-04T20:33:42.086Z,3.33
2023-04-04T20:36:31.298Z,2.57
2023-04-04T20:38:59.598Z,2.67
2023-04-04T20:41:27.827Z,3.13
2023-04-04T20:43:57.090Z,2.73
2023-04-04T20:46:26.458Z,3.13
2023-04-04T20:48:57.195Z,2.60
2023-04-04T20:51:30.893Z,2.50
2023-04-04T20:54:00.685Z,2.50
2023-04-04T20:56:47.540Z,2.80
2023-04-04T20:59:35.380Z,2.43
2023-04-04T21:02:11.776Z,2.67
2023-04-04T21:04:41.847Z,2.63
2023-04-04T21:07:09.839Z,2.37
2023-04-04T21:09:37.715Z,2.50
2023-04-04T21:12:07.775Z,2.90
2023-04-04T21:14:37.497Z,3.00
2023-04-04T21:17:07.708Z,2.70
2023-04-04T21:19:35.617Z,2.80
2023-04-04T21:22:07.711Z,2.80
2023-04-04T21:24:36.928Z,2.70
2023-04-04T21:27:07.602Z,2.90
2023-04-04T21:29:35.457Z,2.27
2023-04-04T21:32:03.885Z,2.40
2023-04-04T21:34:32.626Z,3.00
2023-04-04T21:37:02.905Z,2.43
2023-04-04T21:39:32.213Z,2.60
2023-04-04T21:42:03.260Z,2.67
2023-04-04T21:44:32.987Z,2.33
2023-04-04T21:47:00.898Z,2.60
2023-04-04T21:49:29.609Z,2.60
2023-04-04T21:51:57.524Z,2.77
2023-04-04T21:54:25.362Z,2.83
2023-04-04T21:56:54.862Z,2.10
2023-04-04T21:59:22.737Z,2.83
2023-04-04T22:01:51.759Z,2.57
2023-04-04T22:04:19.761Z,2.97
2023-04-04T22:06:47.659Z,2.70
2023-04-04T22:09:15.934Z,2.73
2023-04-04T22:11:45.283Z,2.73
2023-04-04T22:14:17.454Z,3.10
2023-04-04T22:16:45.915Z,2.63
2023-04-04T22:19:13.909Z,2.63
2023-04-04T22:21:48.029Z,2.60
2023-04-04T22:24:17.777Z,2.73
2023-04-04T22:26:46.477Z,2.77
2023-04-04T22:29:15.911Z,2.50
2023-04-04T22:31:43.940Z,2.57
2023-04-04T22:34:14.663Z,2.80
2023-04-04T22:36:43.736Z,2.63
2023-04-04T22:39:12.032Z,3.17
2023-04-04T22:41:39.914Z,2.67
2023-04-04T22:44:07.886Z,2.73
2023-04-04T22:46:37.041Z,3.23
2023-04-04T22:49:08.736Z,2.80
2023-04-04T22:51:43.990Z,3.17
2023-04-04T22:54:14.113Z,2.83
2023-04-04T22:56:42.232Z,2.63
2023-04-04T22:59:10.212Z,2.90
2023-04-04T23:01:39.732Z,3.10
2023-04-04T23:04:07.965Z,2.93
2023-04-04T23:06:38.408Z,2.70
2023-04-04T23:09:07.614Z,2.67
2023-04-04T23:11:35.587Z,2.67
2023-04-04T23:14:08.387Z,3.33
2023-04-04T23:16:36.481Z,3.23
2023-04-04T23:19:05.944Z,3.07
2023-04-04T23:21:33.957Z,2.73
2023-04-04T23:24:01.829Z,3.17
2023-04-04T23:26:29.784Z,3.43
2023-04-04T23:28:57.730Z,2.60
2023-04-04T23:31:25.790Z,2.63
2023-04-04T23:33:53.842Z,3.00
2023-04-04T23:36:23.179Z,2.30
2023-04-04T23:38:51.086Z,2.60
2023-04-04T23:41:18.986Z,2.50
2023-04-04T23:43:47.077Z,2.63
2023-04-04T23:46:15.452Z,2.60
2023-04-04T23:48:43.454Z,2.90
2023-04-04T23:51:11.652Z,2.53
2023-04-04T23:53:41.288Z,2.93
2023-04-04T23:56:09.353Z,3.00
2023-04-04T23:58:38.736Z,2.70
